Time;durP1;ratioP1;P1;durP2;ratioP2;P2;SDS_P1;SDS_P2;PMS_P1;PMS_P2;Temp;Humidity;BMP_temperature;BMP_pressure;BME280_temperature;BME280_humidity;BME280_pressure;Samples;Min_cycle;Max_cycle;Signal;HPM_P1;HPM_P2
2022/06/02 00:01:55;;;;;;;9.82;6.55;;;;;;;10.53;82.69;102131.75;6240413;22;20011;-56
2022/06/02 00:04:32;;;;;;;11.75;7.25;;;;;;;10.53;82.90;102124.69;6238231;22;20145;-56
2022/06/02 00:07:11;;;;;;;10.10;6.68;;;;;;;10.57;83.04;102122.91;6267282;22;19999;-57
2022/06/02 00:09:39;;;;;;;9.32;6.93;;;;;;;10.64;83.05;102121.03;6233370;23;20019;-55
2022/06/02 00:12:34;;;;;;;9.40;7.57;;;;;;;10.61;82.99;102127.22;6234946;23;20082;-58
2022/06/02 00:15:26;;;;;;;8.88;7.60;;;;;;;10.61;83.19;102125.47;6235538;22;20034;-57
2022/06/02 00:18:12;;;;;;;12.07;8.27;;;;;;;10.60;83.39;102122.88;6236358;23;20088;-59
2022/06/02 00:20:37;;;;;;;9.98;8.57;;;;;;;10.60;83.41;102128.13;6235982;23;20329;-57
2022/06/02 00:23:15;;;;;;;10.77;6.95;;;;;;;10.60;83.11;102123.72;6237423;22;20000;-56
2022/06/02 00:26:13;;;;;;;10.77;7.50;;;;;;;10.55;83.43;102125.56;6237367;23;20008;-60
2022/06/02 00:28:38;;;;;;;10.80;8.07;;;;;;;10.55;83.25;102135.22;6180712;22;19998;-57
2022/06/02 00:31:19;;;;;;;12.65;8.55;;;;;;;10.50;83.56;102130.00;6236174;23;20004;-58
2022/06/02 00:33:55;;;;;;;12.52;8.85;;;;;;;10.42;83.70;102127.44;6237302;23;20000;-57
2022/06/02 00:36:53;;;;;;;13.23;8.43;;;;;;;10.39;83.36;102129.25;6234605;23;20011;-56
2022/06/02 00:39:19;;;;;;;11.07;8.40;;;;;;;10.31;83.78;102126.69;6236643;22;20007;-57
2022/06/02 00:42:03;;;;;;;13.10;9.68;;;;;;;10.24;84.21;102129.41;6235814;22;20038;-58
2022/06/02 00:44:48;;;;;;;11.30;8.95;;;;;;;10.27;83.78;102130.25;6236912;23;19993;-57
2022/06/02 00:47:37;;;;;;;12.02;9.05;;;;;;;10.25;84.18;102130.28;6236636;23;20087;-57
2022/06/02 00:50:05;;;;;;;11.20;8.95;;;;;;;10.25;84.08;102132.91;6235677;23;20000;-59
2022/06/02 00:52:37;;;;;;;9.90;8.90;;;;;;;10.30;83.89;102130.22;6237807;23;19992;-59
2022/06/02 00:58:09;;;;;;;11.27;8.55;;;;;;;10.29;84.02;102123.22;6234978;23;20062;-57
2022/06/02 01:00:50;;;;;;;14.20;10.10;;;;;;;10.25;84.41;102130.28;6235231;23;20031;-57
2022/06/02 01:03:22;;;;;;;15.70;10.00;;;;;;;10.21;84.10;102125.94;6236471;22;20038;-60
2022/06/02 01:05:56;;;;;;;12.40;9.77;;;;;;;10.18;84.17;102132.09;6238173;22;20035;-57
2022/06/02 01:08:55;;;;;;;14.60;10.10;;;;;;;10.17;84.43;102138.25;6235492;23;20015;-61
2022/06/02 01:11:59;;;;;;;14.55;11.10;;;;;;;10.17;84.58;102140.03;6236097;23;20044;-58
2022/06/02 01:14:24;;;;;;;17.10;10.88;;;;;;;10.20;84.65;102147.88;6201565;22;20019;-56
2022/06/02 01:17:27;;;;;;;13.60;10.35;;;;;;;10.19;84.78;102143.53;6236770;23;20378;-61
2022/06/02 01:20:21;;;;;;;13.32;10.25;;;;;;;10.17;84.69;102140.03;6234368;23;20004;-59
2022/06/02 01:23:08;;;;;;;16.73;11.35;;;;;;;10.18;84.72;102142.63;6236506;22;20087;-56
2022/06/02 01:25:41;;;;;;;23.27;11.40;;;;;;;10.13;84.60;102143.56;6237005;23;20011;-60
2022/06/02 01:28:15;;;;;;;15.77;11.98;;;;;;;10.10;84.74;102148.00;6235751;22;20325;-58
2022/06/02 01:30:53;;;;;;;14.88;10.65;;;;;;;10.06;84.70;102146.28;6237002;23;20000;-58
2022/06/02 01:33:22;;;;;;;13.23;10.15;;;;;;;10.05;84.48;102147.19;6235260;23;20016;-57
2022/06/02 01:36:04;;;;;;;13.30;9.82;;;;;;;10.03;84.38;102148.97;6234985;23;20433;-57
2022/06/02 01:38:55;;;;;;;12.77;9.65;;;;;;;10.00;84.55;102154.25;6235470;23;20079;-59
2022/06/02 01:41:45;;;;;;;12.13;9.98;;;;;;;10.03;84.77;102148.09;6234348;23;20424;-58
2022/06/02 01:44:18;;;;;;;17.27;11.90;;;;;;;10.03;85.17;102151.59;6235653;23;20027;-59
2022/06/02 01:46:48;;;;;;;16.00;11.35;;;;;;;10.03;85.03;102159.50;6236799;22;20053;-57
2022/06/02 01:49:22;;;;;;;13.90;10.95;;;;;;;10.05;85.13;102152.44;6236500;22;20000;-56
2022/06/02 01:51:56;;;;;;;19.55;12.48;;;;;;;10.03;85.22;102148.97;6236708;23;20023;-56
2022/06/02 01:54:33;;;;;;;17.02;12.00;;;;;;;9.99;84.93;102155.13;6236372;22;20015;-57
2022/06/02 01:57:45;;;;;;;14.90;11.68;;;;;;;9.95;85.12;102148.16;6235860;23;20008;-58
2022/06/02 02:00:14;;;;;;;13.85;10.50;;;;;;;9.97;84.80;102154.28;6144594;22;20199;-58
2022/06/02 02:02:45;;;;;;;10.50;9.35;;;;;;;10.02;84.81;102146.34;6237242;22;20027;-56
2022/06/02 02:05:28;;;;;;;10.93;8.90;;;;;;;9.99;85.15;102148.13;6234007;23;20019;-58
2022/06/02 02:08:09;;;;;;;16.40;11.73;;;;;;;9.94;84.91;102149.06;6236785;22;20437;-58
2022/06/02 02:10:52;;;;;;;13.02;10.07;;;;;;;9.98;85.06;102142.88;6261141;22;20062;-58
2022/06/02 02:13:34;;;;;;;14.73;10.00;;;;;;;9.98;85.20;102151.66;6266846;22;20428;-57
2022/06/02 02:16:41;;;;;;;15.02;10.45;;;;;;;9.95;85.01;102150.78;6239312;22;20336;-60
2022/06/02 02:19:28;;;;;;;17.42;11.18;;;;;;;9.95;84.82;102150.78;6143282;23;20010;-56
2022/06/02 02:22:11;;;;;;;13.52;10.45;;;;;;;9.91;84.85;102147.34;6141416;23;20012;-60
2022/06/02 02:24:46;;;;;;;15.05;10.93;;;;;;;9.85;85.09;102153.50;6236026;22;20046;-58
2022/06/02 02:27:32;;;;;;;14.10;9.82;;;;;;;9.78;84.84;102150.97;6264824;22;20007;-57
2022/06/02 02:30:09;;;;;;;14.18;11.27;;;;;;;9.80;84.91;102152.69;6267827;22;20012;-57
2022/06/02 02:33:10;;;;;;;15.93;10.75;;;;;;;9.78;85.33;102154.47;6238921;22;20004;-58
2022/06/02 02:35:45;;;;;;;14.18;11.18;;;;;;;9.79;85.12;102165.88;6239392;22;20014;-58
2022/06/02 02:38:23;;;;;;;18.20;12.20;;;;;;;9.78;85.26;102164.13;6238735;22;20379;-56
2022/06/02 02:40:53;;;;;;;11.02;9.60;;;;;;;9.75;85.34;102158.91;6266853;22;20065;-58
2022/06/02 02:43:29;;;;;;;12.93;10.30;;;;;;;9.72;85.31;102165.03;6212744;22;20416;-58
2022/06/02 02:46:10;;;;;;;14.15;9.85;;;;;;;9.69;85.22;102158.06;6266479;22;20057;-57
2022/06/02 02:48:53;;;;;;;12.70;9.93;;;;;;;9.65;85.45;102160.72;6239007;22;20049;-58
2022/06/02 02:51:46;;;;;;;12.55;9.25;;;;;;;9.64;85.19;102161.63;6266978;22;20313;-57
2022/06/02 02:54:37;;;;;;;16.55;11.25;;;;;;;9.63;85.25;102165.16;6266701;22;20015;-59
2022/06/02 02:57:15;;;;;;;14.98;10.95;;;;;;;9.61;85.56;102163.38;6210193;22;20011;-57
2022/06/02 02:59:52;;;;;;;17.45;11.75;;;;;;;9.58;85.41;102163.41;6239424;22;20079;-59
2022/06/02 03:02:20;;;;;;;15.20;11.60;;;;;;;9.55;85.40;102157.31;6267374;22;20011;-57
2022/06/02 03:04:53;;;;;;;17.88;10.88;;;;;;;9.49;85.46;102163.50;6265605;22;20004;-57
2022/06/02 03:07:19;;;;;;;13.57;10.68;;;;;;;9.46;85.62;102161.75;6239817;22;20350;-57
2022/06/02 03:10:01;;;;;;;16.55;9.82;;;;;;;9.45;85.56;102161.78;6264809;22;20007;-58
2022/06/02 03:12:46;;;;;;;12.20;9.63;;;;;;;9.42;85.52;102173.19;6239801;22;20075;-58
2022/06/02 03:15:23;;;;;;;13.52;9.50;;;;;;;9.42;85.40;102169.69;6238735;22;20067;-60
2022/06/02 03:18:23;;;;;;;11.48;9.15;;;;;;;9.41;85.72;102174.06;6240280;22;20000;-58
2022/06/02 03:21:20;;;;;;;14.93;11.48;;;;;;;9.44;85.61;102171.41;6265859;22;20065;-59
2022/06/02 03:24:07;;;;;;;17.63;11.75;;;;;;;9.43;85.88;102174.94;6239985;22;20007;-58
2022/06/02 03:26:41;;;;;;;16.02;11.35;;;;;;;9.50;85.68;102174.88;6265420;22;20042;-59
2022/06/02 03:29:06;;;;;;;19.13;12.18;;;;;;;9.55;85.83;102167.84;6266277;22;20006;-58
2022/06/02 03:31:55;;;;;;;19.65;11.30;;;;;;;9.55;85.97;102168.72;6266192;22;20008;-58
2022/06/02 03:34:55;;;;;;;16.33;11.82;;;;;;;9.57;86.13;102176.59;6239084;22;20010;-59
2022/06/02 03:37:51;;;;;;;16.58;11.85;;;;;;;9.57;85.75;102166.94;6238588;22;20103;-57
2022/06/02 03:40:31;;;;;;;15.75;11.93;;;;;;;9.63;85.74;102173.88;6238713;22;20011;-60
2022/06/02 03:43:13;;;;;;;22.35;13.98;;;;;;;9.70;85.86;102180.00;6240024;22;20014;-58
2022/06/02 03:45:43;;;;;;;24.38;16.85;;;;;;;9.71;86.27;102179.09;6266264;22;20054;-59
2022/06/02 03:48:39;;;;;;;18.15;13.30;;;;;;;9.72;86.47;102180.84;6265915;22;20002;-57
2022/06/02 03:51:26;;;;;;;19.92;12.45;;;;;;;9.71;86.21;102184.34;6266632;22;20014;-57
2022/06/02 03:54:10;;;;;;;16.00;12.13;;;;;;;9.74;86.36;102184.34;6268797;22;20007;-57
2022/06/02 03:57:07;;;;;;;20.35;12.82;;;;;;;9.75;86.33;102186.06;6266335;22;20003;-58
2022/06/02 04:00:13;;;;;;;18.35;12.77;;;;;;;9.76;86.21;102186.97;6201497;22;20043;-57
2022/06/02 04:02:48;;;;;;;18.83;14.32;;;;;;;9.73;86.41;102185.22;6267797;22;20000;-57
2022/06/02 04:05:44;;;;;;;19.10;13.65;;;;;;;9.73;86.44;102187.88;6241471;22;20033;-56
2022/06/02 04:08:45;;;;;;;19.02;12.27;;;;;;;9.79;86.56;102200.97;6215419;22;20004;-56
2022/06/02 04:11:16;;;;;;;21.17;13.93;;;;;;;9.85;86.67;102200.91;6240948;22;20386;-57
2022/06/02 04:14:08;;;;;;;19.92;14.32;;;;;;;9.89;86.78;102200.88;6267838;22;20317;-58
2022/06/02 04:16:48;;;;;;;21.08;13.73;;;;;;;9.92;86.79;102211.38;6268199;22;20377;-59
2022/06/02 04:22:40;;;;;;;20.17;13.55;;;;;;;10.03;86.86;102203.38;6244446;22;20072;-57
2022/06/02 04:25:34;;;;;;;20.60;13.32;;;;;;;10.08;86.92;102205.09;6268503;22;20074;-56
2022/06/02 04:28:14;;;;;;;21.15;14.13;;;;;;;10.17;87.10;102204.13;6239555;22;20026;-59
2022/06/02 04:31:08;;;;;;;18.83;14.38;;;;;;;10.18;86.84;102213.75;6242094;22;20382;-59
2022/06/02 04:33:47;;;;;;;20.70;14.95;;;;;;;10.27;86.99;102215.44;6267099;22;20336;-56
2022/06/02 04:36:27;;;;;;;21.17;14.88;;;;;;;10.35;86.84;102218.88;6240922;22;20382;-59
2022/06/02 04:39:05;;;;;;;24.35;15.52;;;;;;;10.45;87.07;102218.78;6240358;22;20035;-60
2022/06/02 04:41:39;;;;;;;24.70;15.27;;;;;;;10.52;87.01;102220.47;6241426;22;20200;-57
2022/06/02 04:44:13;;;;;;;18.05;12.50;;;;;;;10.59;87.05;102223.91;6267595;22;19996;-59
2022/06/02 04:47:02;;;;;;;16.63;12.60;;;;;;;10.66;87.35;102222.06;6268216;22;20043;-58
2022/06/02 04:49:30;;;;;;;;;;;;;;;10.76;87.14;102220.19;6240795;22;20443;-58
2022/06/02 04:51:58;;;;;;;17.75;11.23;;;;;;;10.85;87.09;102228.88;6268546;22;19933;-56
2022/06/02 04:54:41;;;;;;;16.15;10.85;;;;;;;10.94;87.44;102232.25;6214580;22;20417;-57
2022/06/02 04:57:15;;;;;;;20.98;11.02;;;;;;;11.04;87.18;102238.28;6240501;22;20011;-57
2022/06/02 04:59:50;;;;;;;16.25;12.25;;;;;;;11.15;87.15;102240.78;6266749;22;20007;-61
2022/06/02 05:02:27;;;;;;;19.95;13.32;;;;;;;11.27;86.82;102234.47;6268144;22;20386;-57
2022/06/02 05:05:19;;;;;;;20.05;13.68;;;;;;;11.33;86.92;102240.53;6266677;22;19999;-59
2022/06/02 05:07:53;;;;;;;17.02;12.07;;;;;;;11.42;86.44;102246.56;6221622;22;20348;-58
2022/06/02 05:10:25;;;;;;;19.90;14.23;;;;;;;11.48;86.51;102242.06;6267388;22;20038;-62
2022/06/02 05:13:22;;;;;;;20.55;14.68;;;;;;;11.60;86.23;102243.66;6266623;22;20012;-62
2022/06/02 05:15:50;;;;;;;18.85;14.73;;;;;;;11.69;85.94;102240.00;6266880;22;20010;-58
2022/06/02 05:18:50;;;;;;;18.48;14.43;;;;;;;11.77;85.63;102239.00;6267936;22;20007;-57
2022/06/02 05:21:40;;;;;;;15.60;11.30;;;;;;;11.83;85.52;102246.81;6200639;22;20004;-60
2022/06/02 05:24:14;;;;;;;18.95;14.60;;;;;;;11.83;84.52;102252.94;6267730;22;20079;-57
2022/06/02 05:27:07;;;;;;;15.02;11.82;;;;;;;11.94;85.12;102252.78;6266311;22;20003;-59
2022/06/02 05:29:49;;;;;;;13.30;10.80;;;;;;;12.03;84.66;102257.03;6268580;22;20098;-60
2022/06/02 05:32:27;;;;;;;13.18;9.48;;;;;;;12.12;84.16;102251.63;6239628;22;19995;-58
2022/06/02 05:35:09;;;;;;;11.05;8.60;;;;;;;12.23;84.35;102258.50;6268259;22;20328;-58
2022/06/02 05:38:00;;;;;;;10.98;9.10;;;;;;;12.31;83.91;102261.84;6240232;22;20004;-58
2022/06/02 05:40:41;;;;;;;12.05;8.73;;;;;;;12.43;83.57;102260.75;6267711;22;20137;-58
2022/06/02 05:43:28;;;;;;;9.23;7.72;;;;;;;12.57;83.42;102262.25;6238004;22;20003;-60
2022/06/02 05:46:35;;;;;;;10.93;8.13;;;;;;;12.63;82.31;102256.84;6268553;22;19999;-57
2022/06/02 05:49:07;;;;;;;12.40;7.65;;;;;;;12.70;81.83;102262.91;6250346;22;20033;-58
2022/06/02 05:51:44;;;;;;;9.77;7.97;;;;;;;12.78;81.30;102260.97;6240857;22;20015;-58
2022/06/02 05:54:09;;;;;;;10.35;8.23;;;;;;;12.89;80.70;102269.53;6266030;22;20004;-59
2022/06/02 05:56:43;;;;;;;11.38;8.70;;;;;;;12.99;80.03;102275.53;6265372;22;20344;-58
2022/06/02 05:59:15;;;;;;;10.20;8.02;;;;;;;13.07;79.34;102261.25;6266097;22;20007;-59
2022/06/02 06:01:47;;;;;;;8.90;7.75;;;;;;;13.20;78.53;102268.03;6267002;22;20029;-57
2022/06/02 06:04:28;;;;;;;13.73;7.80;;;;;;;13.23;77.83;102261.78;6267118;22;20008;-57
2022/06/02 06:07:01;;;;;;;7.47;6.68;;;;;;;13.38;77.95;102263.22;6238483;22;20003;-57
2022/06/02 06:09:41;;;;;;;8.88;7.88;;;;;;;13.33;76.41;102273.91;6240200;22;20014;-60
2022/06/02 06:12:47;;;;;;;9.02;8.13;;;;;;;13.40;76.25;102267.56;6237130;22;20457;-57
2022/06/02 06:15:49;;;;;;;7.60;6.40;;;;;;;13.52;75.77;102262.94;6266254;22;20004;-59
2022/06/02 06:18:27;;;;;;;9.02;7.97;;;;;;;13.63;75.10;102263.53;6265831;22;20003;-57
2022/06/02 06:21:11;;;;;;;9.57;7.13;;;;;;;13.79;74.91;102265.84;6267447;22;20110;-58
2022/06/02 06:24:13;;;;;;;10.45;7.90;;;;;;;13.94;74.64;102271.66;6239649;22;20011;-56
2022/06/02 06:27:03;;;;;;;8.95;7.00;;;;;;;13.92;74.46;102276.09;6266303;22;20095;-59
2022/06/02 06:29:35;;;;;;;9.50;7.30;;;;;;;13.88;74.83;102280.63;6239106;22;20354;-58
2022/06/02 06:32:10;;;;;;;6.68;6.00;;;;;;;14.01;73.51;102283.84;6266410;22;20336;-60
2022/06/02 06:34:41;;;;;;;6.95;5.82;;;;;;;14.07;72.04;102285.44;6266741;22;20054;-58
2022/06/02 06:37:36;;;;;;;5.68;5.18;;;;;;;14.20;71.43;102286.88;6266375;22;20003;-61
2022/06/02 06:40:16;;;;;;;8.57;5.82;;;;;;;14.33;71.69;102278.59;6266819;22;20331;-59
2022/06/02 06:42:47;;;;;;;9.13;6.57;;;;;;;14.55;70.34;102281.53;6239263;22;20078;-58
2022/06/02 06:45:26;;;;;;;7.38;5.85;;;;;;;14.78;70.64;102282.72;6266252;22;20324;-59
2022/06/02 06:48:03;;;;;;;6.53;5.45;;;;;;;15.12;69.50;102281.72;6267046;22;20015;-60
2022/06/02 06:50:38;;;;;;;6.95;5.72;;;;;;;15.13;68.21;102278.16;6240009;22;20422;-58
2022/06/02 06:53:31;;;;;;;7.72;5.75;;;;;;;15.33;67.72;102286.41;6266427;22;20026;-57
2022/06/02 06:56:04;;;;;;;7.53;6.10;;;;;;;15.21;66.08;102285.00;6265831;22;20023;-58
2022/06/02 06:58:48;;;;;;;6.55;5.30;;;;;;;15.29;64.43;102288.28;6240534;22;20023;-59
2022/06/02 07:01:25;;;;;;;8.80;5.43;;;;;;;15.29;65.33;102298.91;6239610;22;20450;-58
2022/06/02 07:04:23;;;;;;;6.82;5.65;;;;;;;15.35;65.04;102298.72;6239421;22;20013;-60
2022/06/02 07:07:12;;;;;;;7.67;6.43;;;;;;;15.28;64.84;102303.38;6267244;22;20004;-59
2022/06/02 07:10:00;;;;;;;7.22;5.85;;;;;;;15.46;63.83;102306.38;6265770;22;20015;-58
2022/06/02 07:12:53;;;;;;;4.32;3.80;;;;;;;15.28;63.45;102303.38;6239936;22;20066;-59
2022/06/02 07:15:37;;;;;;;4.82;3.90;;;;;;;15.38;63.36;102303.09;6265845;22;20070;-59
2022/06/02 07:18:08;;;;;;;5.68;3.00;;;;;;;15.52;62.62;102308.84;6266396;22;20014;-59
2022/06/02 07:20:50;;;;;;;4.97;3.70;;;;;;;15.15;63.11;102310.81;6265966;22;20458;-58
2022/06/02 07:23:21;;;;;;;5.47;4.20;;;;;;;15.34;63.22;102317.34;6239139;22;20309;-63
2022/06/02 07:26:15;;;;;;;7.00;4.13;;;;;;;15.28;63.53;102313.09;6264889;22;20016;-58
2022/06/02 07:29:10;;;;;;;7.03;3.80;;;;;;;15.39;62.89;102318.94;6187845;22;20004;-58
2022/06/02 07:32:04;;;;;;;4.38;3.55;;;;;;;15.46;63.11;102326.72;6214290;22;20061;-57
2022/06/02 07:34:44;;;;;;;3.95;3.50;;;;;;;15.22;62.49;102330.09;6267098;22;20010;-58
2022/06/02 07:37:29;;;;;;;3.80;2.78;;;;;;;15.49;60.65;102330.19;6238252;22;20333;-58
2022/06/02 07:40:29;;;;;;;4.15;3.13;;;;;;;15.92;59.55;102335.03;6239809;22;20004;-57
2022/06/02 07:43:03;;;;;;;4.32;3.75;;;;;;;16.21;59.25;102332.34;6266110;22;20369;-57
2022/06/02 07:45:35;;;;;;;4.07;3.60;;;;;;;16.36;59.42;102336.28;6268026;22;20012;-58
2022/06/02 07:48:27;;;;;;;3.75;3.30;;;;;;;16.49;59.25;102337.59;6267181;22;20409;-57
2022/06/02 07:51:04;;;;;;;6.13;3.55;;;;;;;16.58;59.23;102339.06;6214654;22;20004;-59
2022/06/02 07:53:57;;;;;;;5.30;3.70;;;;;;;17.16;55.75;102337.88;6239674;22;20003;-59
2022/06/02 07:56:48;;;;;;;3.80;3.50;;;;;;;17.01;56.16;102331.28;6238210;22;20004;-59
2022/06/02 07:59:28;;;;;;;3.00;2.80;;;;;;;17.16;55.27;102331.69;6251623;22;20078;-59
2022/06/02 08:02:24;;;;;;;6.70;3.47;;;;;;;17.29;54.71;102332.09;6266531;22;20467;-60
2022/06/02 08:05:19;;;;;;;3.60;3.30;;;;;;;17.35;55.29;102339.84;6265688;22;20007;-58
2022/06/02 08:07:50;;;;;;;6.35;3.90;;;;;;;17.33;55.03;102336.34;6265639;22;20011;-59
2022/06/02 08:10:29;;;;;;;5.63;3.72;;;;;;;17.58;54.61;102340.72;6265376;22;20365;-58
2022/06/02 08:13:13;;;;;;;4.20;3.30;;;;;;;17.57;55.07;102336.31;6240398;22;19999;-59
2022/06/02 08:15:52;;;;;;;3.75;3.15;;;;;;;17.72;54.01;102337.50;6265842;22;20377;-60
2022/06/02 08:18:36;;;;;;;7.35;4.13;;;;;;;17.84;54.23;102340.59;6266934;22;20039;-60
2022/06/02 08:21:20;;;;;;;3.78;3.40;;;;;;;17.85;54.12;102345.00;6267266;22;20003;-59
2022/06/02 08:23:54;;;;;;;4.57;3.15;;;;;;;17.37;53.37;102343.28;6239802;22;19992;-58
2022/06/02 08:26:44;;;;;;;3.90;3.00;;;;;;;17.56;53.33;102353.25;6266326;22;20083;-60
2022/06/02 08:29:22;;;;;;;5.05;2.75;;;;;;;17.78;52.20;102347.03;6237170;22;19996;-58
2022/06/02 08:32:06;;;;;;;4.63;3.08;;;;;;;17.86;52.21;102342.28;6239332;22;20087;-57
2022/06/02 08:34:35;;;;;;;6.38;2.80;;;;;;;18.13;50.50;102341.22;6264860;22;20011;-60
2022/06/02 08:37:39;;;;;;;6.05;3.53;;;;;;;18.09;50.64;102335.09;6267751;22;20076;-60
2022/06/02 08:40:23;;;;;;;5.22;3.85;;;;;;;18.26;51.16;102342.44;6178656;22;20008;-60
2022/06/02 08:43:20;;;;;;;4.55;3.22;;;;;;;17.91;51.47;102339.44;6267892;22;20023;-58
2022/06/02 08:46:13;;;;;;;2.92;2.50;;;;;;;18.29;50.02;102352.09;6161113;22;20007;-59
2022/06/02 08:49:21;;;;;;;9.93;3.42;;;;;;;18.36;51.65;102345.56;6268568;22;20008;-60
2022/06/02 08:52:14;;;;;;;4.78;3.25;;;;;;;18.58;50.98;102349.09;6240938;22;20018;-60
2022/06/02 08:55:07;;;;;;;4.80;3.30;;;;;;;18.31;50.50;102344.91;6267280;22;20007;-59
2022/06/02 08:58:11;;;;;;;4.10;3.22;;;;;;;18.45;50.67;102346.97;6266694;22;20290;-62
2022/06/02 09:00:36;;;;;;;5.20;3.40;;;;;;;18.68;50.33;102347.78;6267319;22;20014;-62
2022/06/02 09:03:23;;;;;;;4.40;3.00;;;;;;;18.85;50.19;102357.72;6266792;22;20004;-61
2022/06/02 09:06:16;;;;;;;6.18;3.55;;;;;;;18.72;49.88;102359.19;6266981;22;20012;-58
2022/06/02 09:09:04;;;;;;;5.90;3.53;;;;;;;18.79;49.84;102368.66;6266605;22;20432;-60
2022/06/02 09:11:55;;;;;;;3.90;2.70;;;;;;;18.89;49.42;102355.75;6241288;22;20004;-60
2022/06/02 09:14:43;;;;;;;5.13;3.65;;;;;;;18.95;50.15;102358.16;6210519;22;20010;-59
2022/06/02 09:17:46;;;;;;;7.65;3.50;;;;;;;19.08;47.59;102357.63;6240834;22;20007;-60
2022/06/02 09:20:31;;;;;;;5.80;3.42;;;;;;;18.98;49.40;102368.69;6267832;22;20039;-57
2022/06/02 09:23:03;;;;;;;6.82;3.85;;;;;;;19.00;48.42;102363.28;6267728;22;20397;-58
2022/06/02 09:25:55;;;;;;;4.68;3.50;;;;;;;18.78;48.62;102365.09;6267213;22;20004;-58
2022/06/02 09:28:20;;;;;;;5.38;3.55;;;;;;;19.05;48.81;102367.47;6210673;22;20004;-58
2022/06/02 09:30:57;;;;;;;5.43;3.53;;;;;;;19.21;48.15;102363.25;6268511;22;20043;-58
2022/06/02 09:33:43;;;;;;;7.18;4.35;;;;;;;19.28;47.55;102362.91;6266550;22;20004;-57
2022/06/02 09:36:11;;;;;;;4.82;4.10;;;;;;;19.00;48.47;102364.16;6241602;22;20498;-59
2022/06/02 09:38:39;;;;;;;7.20;4.57;;;;;;;18.72;48.12;102365.38;6266476;22;20391;-60
2022/06/02 09:41:12;;;;;;;4.93;4.40;;;;;;;18.50;49.34;102366.34;6265449;22;20444;-57
2022/06/02 09:44:00;;;;;;;7.25;4.63;;;;;;;18.34;49.78;102366.13;6239323;22;20003;-58
2022/06/02 09:46:51;;;;;;;8.02;4.18;;;;;;;18.30;49.35;102360.03;6240355;22;20039;-57
2022/06/02 09:49:25;;;;;;;4.30;3.70;;;;;;;18.34;49.45;102358.13;6265257;22;20007;-58
2022/06/02 09:52:09;;;;;;;4.30;3.45;;;;;;;18.23;49.69;102363.91;6268211;22;20075;-61
2022/06/02 09:54:57;;;;;;;4.63;3.47;;;;;;;18.21;49.46;102360.44;6265960;22;20323;-59
2022/06/02 10:00:48;;;;;;;5.68;3.97;;;;;;;18.15;50.28;102356.22;6265632;22;20459;-58
2022/06/02 10:03:42;;;;;;;5.78;3.13;;;;;;;18.43;49.14;102355.03;6267127;22;20537;-59
2022/06/02 10:06:45;;;;;;;4.00;3.17;;;;;;;18.43;49.35;102352.38;6266089;22;20423;-59
2022/06/02 10:09:49;;;;;;;6.05;3.72;;;;;;;18.50;48.65;102352.09;6265390;22;20020;-59
2022/06/02 10:15:42;;;;;;;4.32;3.60;;;;;;;18.60;48.39;102349.94;6265478;22;20390;-59
2022/06/02 10:18:29;;;;;;;5.38;3.85;;;;;;;18.49;49.74;102345.03;6239754;22;20336;-62
2022/06/02 10:21:12;;;;;;;9.57;3.58;;;;;;;18.79;48.18;102341.97;6266242;22;20008;-57
2022/06/02 10:23:47;;;;;;;5.60;3.83;;;;;;;18.99;47.30;102345.53;6239458;22;20054;-58
2022/06/02 10:26:31;;;;;;;3.42;3.13;;;;;;;19.17;46.20;102347.38;6263899;22;20049;-63
2022/06/02 10:29:34;;;;;;;7.13;3.00;;;;;;;19.29;46.11;102345.94;6266842;22;20445;-59
2022/06/02 10:32:28;;;;;;;4.43;3.70;;;;;;;19.31;46.61;102335.16;6267373;22;20133;-60
2022/06/02 10:35:38;;;;;;;5.20;3.15;;;;;;;19.24;45.67;102328.38;6237955;22;20031;-59
2022/06/02 10:38:05;;;;;;;8.15;3.65;;;;;;;18.62;48.68;102326.69;6235158;22;20036;-60
2022/06/02 10:41:09;;;;;;;4.55;3.75;;;;;;;19.03;47.48;102326.59;6265331;22;20004;-57
2022/06/02 10:43:37;;;;;;;4.32;3.25;;;;;;;19.33;47.19;102325.28;6266984;22;20011;-59
2022/06/02 10:46:31;;;;;;;4.78;3.47;;;;;;;19.50;46.35;102321.78;6265405;22;20015;-60
2022/06/02 10:49:25;;;;;;;4.78;3.63;;;;;;;20.05;43.74;102319.16;6261961;22;20014;-58
2022/06/02 10:52:30;;;;;;;6.80;3.80;;;;;;;20.05;44.34;102319.16;6238259;22;20007;-60
2022/06/02 10:55:28;;;;;;;4.15;3.30;;;;;;;19.91;44.11;102314.47;6265565;22;20111;-59
2022/06/02 10:58:18;;;;;;;3.03;2.28;;;;;;;20.76;42.06;102305.66;6239232;22;20137;-61
2022/06/02 11:00:53;;;;;;;5.13;3.20;;;;;;;20.57;41.43;102317.38;6265314;22;20007;-59
2022/06/02 11:03:30;;;;;;;5.18;2.90;;;;;;;21.33;39.78;102301.69;6264962;22;20345;-60
2022/06/02 11:06:07;;;;;;;5.70;2.85;;;;;;;21.51;39.33;102309.63;6266660;22;20043;-59
2022/06/02 11:09:00;;;;;;;5.55;2.85;;;;;;;21.67;39.12;102310.47;6238317;22;20006;-60
2022/06/02 11:11:47;;;;;;;6.03;2.90;;;;;;;22.13;37.99;102300.72;6265284;22;20400;-61
2022/06/02 11:14:40;;;;;;;2.78;2.53;;;;;;;21.94;38.27;102306.28;6264217;22;20010;-61
2022/06/02 11:17:31;;;;;;;3.45;2.60;;;;;;;21.88;37.86;102301.31;6237860;22;20031;-59
2022/06/02 11:20:02;;;;;;;5.13;2.92;;;;;;;21.61;40.00;102305.47;6266696;22;20069;-59
2022/06/02 11:23:05;;;;;;;3.38;2.90;;;;;;;21.79;40.09;102300.03;6266960;22;20363;-59
2022/06/02 11:26:22;;;;;;;3.25;2.70;;;;;;;21.82;44.04;102302.50;6266333;22;20004;-58
2022/06/02 11:29:21;;;;;;;3.53;3.10;;;;;;;21.84;40.76;102303.31;6143132;23;20006;-59
2022/06/02 11:32:24;;;;;;;7.55;3.53;;;;;;;21.94;40.87;102293.75;6117994;23;20256;-60
2022/06/02 11:35:08;;;;;;;3.65;2.90;;;;;;;22.39;40.70;102298.25;6111822;23;20010;-60
2022/06/02 11:37:42;;;;;;;9.38;3.35;;;;;;;23.19;37.68;102304.09;6111327;23;20093;-60
2022/06/02 11:40:44;;;;;;;5.85;3.08;;;;;;;22.77;37.80;102301.34;6209820;22;20011;-58
2022/06/02 11:43:24;;;;;;;5.07;2.92;;;;;;;22.69;39.51;102300.03;6264497;22;20007;-60
2022/06/02 11:46:10;;;;;;;3.45;3.15;;;;;;;22.77;38.38;102301.34;6266217;22;20049;-61
2022/06/02 11:48:38;;;;;;;6.63;3.53;;;;;;;22.61;36.56;102294.28;6265617;22;20007;-60
2022/06/02 11:51:22;;;;;;;6.20;3.60;;;;;;;22.39;37.93;102300.94;6266484;22;20096;-60
2022/06/02 11:53:50;;;;;;;4.97;3.20;;;;;;;22.16;36.49;102289.78;6266426;22;20039;-58
2022/06/02 11:56:27;;;;;;;5.53;3.00;;;;;;;22.06;39.49;102299.34;6265540;22;20325;-60
2022/06/02 11:59:11;;;;;;;6.53;2.72;;;;;;;22.18;40.69;102301.28;6265655;22;20008;-60
2022/06/02 12:01:40;;;;;;;5.82;3.03;;;;;;;22.80;39.06;102293.09;6239647;22;19999;-62
2022/06/02 12:04:31;;;;;;;3.63;3.30;;;;;;;22.78;36.79;102293.19;6265811;22;20004;-60
2022/06/02 12:07:30;;;;;;;4.57;4.03;;;;;;;22.11;38.48;102286.50;6267059;22;20011;-61
2022/06/02 12:10:07;;;;;;;4.05;3.55;;;;;;;22.80;35.53;102282.34;6264191;22;20022;-61
2022/06/02 12:13:00;;;;;;;5.82;3.35;;;;;;;23.40;39.35;102283.03;6267947;22;20662;-62
2022/06/02 12:15:44;;;;;;;5.60;3.45;;;;;;;23.46;35.92;102279.94;6239961;22;20023;-62
2022/06/02 12:18:27;;;;;;;5.55;3.75;;;;;;;23.08;36.67;102278.75;6267643;22;20003;-62
2022/06/02 12:21:14;;;;;;;3.13;2.90;;;;;;;23.57;34.82;102281.06;6267542;22;20053;-61
2022/06/02 12:24:04;;;;;;;3.17;2.88;;;;;;;24.08;37.10;102279.44;6268103;22;20007;-59
2022/06/02 12:26:54;;;;;;;3.05;2.50;;;;;;;23.95;33.34;102271.31;6240770;22;20454;-60
2022/06/02 12:29:19;;;;;;;2.70;2.50;;;;;;;23.31;34.83;102278.22;6267813;22;20376;-62
2022/06/02 12:32:12;;;;;;;6.70;3.90;;;;;;;23.25;36.18;102271.44;6267021;22;20002;-61
2022/06/02 12:34:46;;;;;;;5.95;4.03;;;;;;;23.97;34.29;102272.97;6267428;22;20713;-61
2022/06/02 12:37:28;;;;;;;4.85;3.13;;;;;;;24.33;33.93;102265.16;6240310;22;20038;-60
2022/06/02 12:40:07;;;;;;;3.60;3.15;;;;;;;23.64;33.78;102265.34;6266580;22;20010;-61
2022/06/02 12:43:02;;;;;;;4.32;3.05;;;;;;;23.32;36.83;102263.81;6241435;22;20004;-60
2022/06/02 12:45:30;;;;;;;3.95;2.90;;;;;;;23.30;35.35;102261.22;6251380;22;20082;-60
2022/06/02 12:48:26;;;;;;;3.28;2.95;;;;;;;23.93;33.95;102254.44;6268328;22;20023;-60
2022/06/02 12:51:17;;;;;;;2.85;2.53;;;;;;;24.60;32.69;102257.91;6267118;22;20008;-60